sensor_id;sensor_type;location;lat;lon;timestamp;temperature;humidity
9820;DHT22;4949;48.482;9.206;2023-02-23T00:04:40;10.70;71.80
9820;DHT22;4949;48.482;9.206;2023-02-23T00:09:41;10.70;72.00
9820;DHT22;4949;48.482;9.206;2023-02-23T00:14:42;10.60;72.10
9820;DHT22;4949;48.482;9.206;2023-02-23T00:19:46;10.60;72.30
9820;DHT22;4949;48.482;9.206;2023-02-23T00:24:50;10.50;73.30
9820;DHT22;4949;48.482;9.206;2023-02-23T00:29:51;10.40;72.60
9820;DHT22;4949;48.482;9.206;2023-02-23T00:34:52;10.40;72.50
9820;DHT22;4949;48.482;9.206;2023-02-23T00:39:57;10.50;72.90
9820;DHT22;4949;48.482;9.206;2023-02-23T00:45:00;10.40;73.00
9820;DHT22;4949;48.482;9.206;2023-02-23T00:50:10;10.50;73.30
9820;DHT22;4949;48.482;9.206;2023-02-23T00:55:13;10.30;73.70
9820;DHT22;4949;48.482;9.206;2023-02-23T01:00:14;10.20;73.90
9820;DHT22;4949;48.482;9.206;2023-02-23T01:05:21;10.30;74.00
9820;DHT22;4949;48.482;9.206;2023-02-23T01:10:22;10.30;74.40
9820;DHT22;4949;48.482;9.206;2023-02-23T01:15:23;10.20;75.00
9820;DHT22;4949;48.482;9.206;2023-02-23T01:20:26;10.20;75.20
9820;DHT22;4949;48.482;9.206;2023-02-23T01:25:29;10.10;75.20
9820;DHT22;4949;48.482;9.206;2023-02-23T01:30:33;10.10;75.30
9820;DHT22;4949;48.482;9.206;2023-02-23T01:35:36;10.10;75.90
9820;DHT22;4949;48.482;9.206;2023-02-23T01:40:41;10.00;76.00
9820;DHT22;4949;48.482;9.206;2023-02-23T01:45:44;10.00;76.50
9820;DHT22;4949;48.482;9.206;2023-02-23T01:50:52;10.00;77.40
9820;DHT22;4949;48.482;9.206;2023-02-23T01:56:02;10.00;76.80
9820;DHT22;4949;48.482;9.206;2023-02-23T02:01:14;10.00;77.10
9820;DHT22;4949;48.482;9.206;2023-02-23T02:06:17;10.00;77.30
9820;DHT22;4949;48.482;9.206;2023-02-23T02:11:20;9.90;78.40
9820;DHT22;4949;48.482;9.206;2023-02-23T02:44:16;9.80;78.90
9820;DHT22;4949;48.482;9.206;2023-02-23T02:49:31;9.70;79.20
9820;DHT22;4949;48.482;9.206;2023-02-23T02:54:51;9.70;80.10
9820;DHT22;4949;48.482;9.206;2023-02-23T02:59:53;9.60;80.00
9820;DHT22;4949;48.482;9.206;2023-02-23T03:05:17;9.60;80.20
9820;DHT22;4949;48.482;9.206;2023-02-23T03:10:49;9.60;80.50
9820;DHT22;4949;48.482;9.206;2023-02-23T03:33:21;9.60;80.20
9820;DHT22;4949;48.482;9.206;2023-02-23T03:39:00;9.60;80.40
9820;DHT22;4949;48.482;9.206;2023-02-23T03:44:31;9.70;80.60
9820;DHT22;4949;48.482;9.206;2023-02-23T03:49:53;9.70;80.50
9820;DHT22;4949;48.482;9.206;2023-02-23T03:55:23;9.70;80.40
9820;DHT22;4949;48.482;9.206;2023-02-23T04:00:47;9.70;80.60
9820;DHT22;4949;48.482;9.206;2023-02-23T04:06:10;9.70;81.10
9820;DHT22;4949;48.482;9.206;2023-02-23T04:17:08;9.70;80.70
9820;DHT22;4949;48.482;9.206;2023-02-23T04:22:09;9.70;80.60
9820;DHT22;4949;48.482;9.206;2023-02-23T04:27:11;9.70;80.50
9820;DHT22;4949;48.482;9.206;2023-02-23T04:32:17;9.80;80.20
9820;DHT22;4949;48.482;9.206;2023-02-23T04:37:21;9.80;79.90
9820;DHT22;4949;48.482;9.206;2023-02-23T04:42:24;9.70;80.00
9820;DHT22;4949;48.482;9.206;2023-02-23T04:47:25;9.70;80.40
9820;DHT22;4949;48.482;9.206;2023-02-23T04:52:26;9.70;80.10
9820;DHT22;4949;48.482;9.206;2023-02-23T04:57:26;9.70;80.00
9820;DHT22;4949;48.482;9.206;2023-02-23T05:02:28;9.70;80.00
9820;DHT22;4949;48.482;9.206;2023-02-23T05:07:32;9.70;79.90
9820;DHT22;4949;48.482;9.206;2023-02-23T05:12:35;9.70;79.70
9820;DHT22;4949;48.482;9.206;2023-02-23T05:17:39;9.80;79.30
9820;DHT22;4949;48.482;9.206;2023-02-23T05:22:43;9.70;79.20
9820;DHT22;4949;48.482;9.206;2023-02-23T05:27:46;9.70;79.40
9820;DHT22;4949;48.482;9.206;2023-02-23T05:32:46;9.70;79.20
9820;DHT22;4949;48.482;9.206;2023-02-23T05:37:53;9.70;79.10
9820;DHT22;4949;48.482;9.206;2023-02-23T05:42:58;9.80;79.10
9820;DHT22;4949;48.482;9.206;2023-02-23T05:47:59;9.70;79.10
9820;DHT22;4949;48.482;9.206;2023-02-23T05:53:00;9.70;79.20
9820;DHT22;4949;48.482;9.206;2023-02-23T05:58:00;9.80;79.20
9820;DHT22;4949;48.482;9.206;2023-02-23T06:03:03;9.80;79.30
9820;DHT22;4949;48.482;9.206;2023-02-23T06:08:04;9.80;79.40
9820;DHT22;4949;48.482;9.206;2023-02-23T06:13:05;9.80;79.70
9820;DHT22;4949;48.482;9.206;2023-02-23T06:18:06;9.80;80.30
9820;DHT22;4949;48.482;9.206;2023-02-23T06:23:10;9.80;79.10
9820;DHT22;4949;48.482;9.206;2023-02-23T06:28:14;9.80;79.20
9820;DHT22;4949;48.482;9.206;2023-02-23T06:33:18;9.80;80.20
9820;DHT22;4949;48.482;9.206;2023-02-23T06:38:19;9.80;80.30
9820;DHT22;4949;48.482;9.206;2023-02-23T06:43:20;9.70;80.70
9820;DHT22;4949;48.482;9.206;2023-02-23T06:48:21;9.80;80.70
9820;DHT22;4949;48.482;9.206;2023-02-23T06:53:24;9.90;79.20
9820;DHT22;4949;48.482;9.206;2023-02-23T06:58:25;10.00;77.00
9820;DHT22;4949;48.482;9.206;2023-02-23T07:03:28;10.00;77.00
9820;DHT22;4949;48.482;9.206;2023-02-23T07:08:29;9.90;78.70
9820;DHT22;4949;48.482;9.206;2023-02-23T07:13:29;9.90;78.30
9820;DHT22;4949;48.482;9.206;2023-02-23T07:18:30;9.90;78.80
9820;DHT22;4949;48.482;9.206;2023-02-23T07:23:31;9.90;79.10
9820;DHT22;4949;48.482;9.206;2023-02-23T07:28:32;9.90;80.50
9820;DHT22;4949;48.482;9.206;2023-02-23T07:33:35;9.90;79.90
9820;DHT22;4949;48.482;9.206;2023-02-23T07:38:35;10.10;78.90
9820;DHT22;4949;48.482;9.206;2023-02-23T07:43:36;9.90;79.90
9820;DHT22;4949;48.482;9.206;2023-02-23T07:48:37;10.00;78.80
9820;DHT22;4949;48.482;9.206;2023-02-23T07:53:44;10.00;78.70
9820;DHT22;4949;48.482;9.206;2023-02-23T07:58:45;10.00;79.10
9820;DHT22;4949;48.482;9.206;2023-02-23T08:03:46;10.00;79.90
9820;DHT22;4949;48.482;9.206;2023-02-23T08:08:49;10.00;80.30
9820;DHT22;4949;48.482;9.206;2023-02-23T08:13:50;10.00;80.50
9820;DHT22;4949;48.482;9.206;2023-02-23T08:18:51;10.00;80.40
9820;DHT22;4949;48.482;9.206;2023-02-23T08:23:52;10.10;80.20
9820;DHT22;4949;48.482;9.206;2023-02-23T08:28:54;10.10;80.00
9820;DHT22;4949;48.482;9.206;2023-02-23T08:33:55;10.30;79.20
9820;DHT22;4949;48.482;9.206;2023-02-23T08:38:56;10.50;78.40
9820;DHT22;4949;48.482;9.206;2023-02-23T08:43:57;10.50;77.70
9820;DHT22;4949;48.482;9.206;2023-02-23T08:48:58;10.60;78.00
9820;DHT22;4949;48.482;9.206;2023-02-23T08:54:00;10.70;75.70
9820;DHT22;4949;48.482;9.206;2023-02-23T08:59:01;10.90;74.30
9820;DHT22;4949;48.482;9.206;2023-02-23T09:04:03;10.90;74.80
9820;DHT22;4949;48.482;9.206;2023-02-23T09:09:04;10.90;73.90
9820;DHT22;4949;48.482;9.206;2023-02-23T09:14:05;11.00;74.10
9820;DHT22;4949;48.482;9.206;2023-02-23T09:19:09;11.00;73.90
9820;DHT22;4949;48.482;9.206;2023-02-23T09:24:12;11.00;75.50
9820;DHT22;4949;48.482;9.206;2023-02-23T09:29:15;11.00;77.00
9820;DHT22;4949;48.482;9.206;2023-02-23T09:34:19;11.00;77.20
9820;DHT22;4949;48.482;9.206;2023-02-23T09:39:21;10.90;77.00
9820;DHT22;4949;48.482;9.206;2023-02-23T09:49:47;11.00;76.70
9820;DHT22;4949;48.482;9.206;2023-02-23T09:54:52;11.30;76.90
9820;DHT22;4949;48.482;9.206;2023-02-23T09:59:53;11.40;75.60
9820;DHT22;4949;48.482;9.206;2023-02-23T10:05:00;11.40;74.80
9820;DHT22;4949;48.482;9.206;2023-02-23T10:10:23;11.60;74.30
9820;DHT22;4949;48.482;9.206;2023-02-23T10:15:56;11.80;73.70
9820;DHT22;4949;48.482;9.206;2023-02-23T10:26:25;12.40;71.90
9820;DHT22;4949;48.482;9.206;2023-02-23T10:31:43;12.60;70.30
9820;DHT22;4949;48.482;9.206;2023-02-23T10:37:00;12.90;69.90
9820;DHT22;4949;48.482;9.206;2023-02-23T10:42:09;13.30;68.70
9820;DHT22;4949;48.482;9.206;2023-02-23T10:47:19;13.80;65.50
9820;DHT22;4949;48.482;9.206;2023-02-23T10:57:43;14.80;61.80
9820;DHT22;4949;48.482;9.206;2023-02-23T11:02:49;15.40;59.80
9820;DHT22;4949;48.482;9.206;2023-02-23T11:07:50;16.00;58.40
9820;DHT22;4949;48.482;9.206;2023-02-23T11:13:42;16.30;56.90
9820;DHT22;4949;48.482;9.206;2023-02-23T11:18:59;16.10;56.50
9820;DHT22;4949;48.482;9.206;2023-02-23T11:24:23;16.30;56.00
9820;DHT22;4949;48.482;9.206;2023-02-23T11:34:42;16.70;54.00
9820;DHT22;4949;48.482;9.206;2023-02-23T11:40:26;16.40;54.80
9820;DHT22;4949;48.482;9.206;2023-02-23T11:45:49;16.00;55.40
9820;DHT22;4949;48.482;9.206;2023-02-23T11:50:54;15.80;55.60
9820;DHT22;4949;48.482;9.206;2023-02-23T11:56:00;15.80;55.90
9820;DHT22;4949;48.482;9.206;2023-02-23T12:01:09;16.00;55.50
9820;DHT22;4949;48.482;9.206;2023-02-23T12:11:41;16.10;55.00
9820;DHT22;4949;48.482;9.206;2023-02-23T12:16:52;16.10;54.80
9820;DHT22;4949;48.482;9.206;2023-02-23T12:22:04;16.10;54.50
9820;DHT22;4949;48.482;9.206;2023-02-23T12:32:23;15.70;55.30
9820;DHT22;4949;48.482;9.206;2023-02-23T12:53:26;15.30;56.50
9820;DHT22;4949;48.482;9.206;2023-02-23T13:15:59;15.00;56.10
9820;DHT22;4949;48.482;9.206;2023-02-23T13:21:33;15.00;55.90
9820;DHT22;4949;48.482;9.206;2023-02-23T13:31:51;14.90;56.20
9820;DHT22;4949;48.482;9.206;2023-02-23T13:36:58;14.80;56.20
9820;DHT22;4949;48.482;9.206;2023-02-23T13:53:24;14.80;55.80
9820;DHT22;4949;48.482;9.206;2023-02-23T13:58:35;14.80;56.10
9820;DHT22;4949;48.482;9.206;2023-02-23T14:03:44;14.70;55.60
9820;DHT22;4949;48.482;9.206;2023-02-23T14:08:54;14.70;55.60
9820;DHT22;4949;48.482;9.206;2023-02-23T14:14:01;14.60;56.20
9820;DHT22;4949;48.482;9.206;2023-02-23T14:19:04;14.60;55.20
9820;DHT22;4949;48.482;9.206;2023-02-23T14:24:28;14.50;55.40
9820;DHT22;4949;48.482;9.206;2023-02-23T14:29:39;14.60;55.40
9820;DHT22;4949;48.482;9.206;2023-02-23T14:34:50;14.80;55.10
9820;DHT22;4949;48.482;9.206;2023-02-23T14:39:54;14.90;55.40
9820;DHT22;4949;48.482;9.206;2023-02-23T14:45:11;14.90;54.80
9820;DHT22;4949;48.482;9.206;2023-02-23T14:50:33;14.70;55.40
9820;DHT22;4949;48.482;9.206;2023-02-23T14:55:39;14.60;56.10
9820;DHT22;4949;48.482;9.206;2023-02-23T15:00:42;14.60;56.20
9820;DHT22;4949;48.482;9.206;2023-02-23T15:05:50;14.50;56.10
9820;DHT22;4949;48.482;9.206;2023-02-23T15:11:03;14.50;56.40
9820;DHT22;4949;48.482;9.206;2023-02-23T15:16:27;14.50;56.20
9820;DHT22;4949;48.482;9.206;2023-02-23T15:21:31;14.50;56.40
9820;DHT22;4949;48.482;9.206;2023-02-23T15:26:34;14.60;56.10
9820;DHT22;4949;48.482;9.206;2023-02-23T15:31:36;14.70;56.10
9820;DHT22;4949;48.482;9.206;2023-02-23T15:36:42;14.60;56.00
9820;DHT22;4949;48.482;9.206;2023-02-23T15:41:49;14.60;56.30
9820;DHT22;4949;48.482;9.206;2023-02-23T15:46:56;14.50;56.40
9820;DHT22;4949;48.482;9.206;2023-02-23T15:52:25;14.60;56.10
9820;DHT22;4949;48.482;9.206;2023-02-23T15:57:31;14.60;56.50
9820;DHT22;4949;48.482;9.206;2023-02-23T16:02:35;14.60;56.50
9820;DHT22;4949;48.482;9.206;2023-02-23T16:07:40;14.60;56.50
9820;DHT22;4949;48.482;9.206;2023-02-23T16:12:45;14.50;56.70
9820;DHT22;4949;48.482;9.206;2023-02-23T16:17:59;14.50;57.40
9820;DHT22;4949;48.482;9.206;2023-02-23T16:23:09;14.40;59.50
9820;DHT22;4949;48.482;9.206;2023-02-23T16:28:27;14.40;60.50
9820;DHT22;4949;48.482;9.206;2023-02-23T16:38:59;14.40;60.30
9820;DHT22;4949;48.482;9.206;2023-02-23T16:44:05;14.40;60.80
9820;DHT22;4949;48.482;9.206;2023-02-23T16:49:08;14.30;61.50
9820;DHT22;4949;48.482;9.206;2023-02-23T16:54:11;14.30;62.20
9820;DHT22;4949;48.482;9.206;2023-02-23T16:59:17;14.20;62.30
9820;DHT22;4949;48.482;9.206;2023-02-23T17:04:19;14.10;62.70
9820;DHT22;4949;48.482;9.206;2023-02-23T17:09:23;14.10;62.70
9820;DHT22;4949;48.482;9.206;2023-02-23T17:14:25;13.90;63.60
9820;DHT22;4949;48.482;9.206;2023-02-23T17:19:31;13.80;64.10
9820;DHT22;4949;48.482;9.206;2023-02-23T17:24:31;13.70;64.90
9820;DHT22;4949;48.482;9.206;2023-02-23T17:29:37;13.60;65.30
9820;DHT22;4949;48.482;9.206;2023-02-23T17:34:40;13.50;66.00
9820;DHT22;4949;48.482;9.206;2023-02-23T17:39:42;13.50;66.40
9820;DHT22;4949;48.482;9.206;2023-02-23T17:44:43;13.40;66.90
9820;DHT22;4949;48.482;9.206;2023-02-23T17:49:46;13.40;67.60
9820;DHT22;4949;48.482;9.206;2023-02-23T17:54:47;13.20;68.60
9820;DHT22;4949;48.482;9.206;2023-02-23T17:59:50;13.20;69.40
9820;DHT22;4949;48.482;9.206;2023-02-23T18:04:53;13.00;70.00
9820;DHT22;4949;48.482;9.206;2023-02-23T18:09:54;12.90;70.60
9820;DHT22;4949;48.482;9.206;2023-02-23T18:14:58;12.90;71.50
9820;DHT22;4949;48.482;9.206;2023-02-23T18:20:01;12.80;72.60
9820;DHT22;4949;48.482;9.206;2023-02-23T18:25:05;12.80;72.80
9820;DHT22;4949;48.482;9.206;2023-02-23T18:30:10;12.80;72.60
9820;DHT22;4949;48.482;9.206;2023-02-23T18:35:11;12.60;74.80
9820;DHT22;4949;48.482;9.206;2023-02-23T18:40:14;12.50;75.00
9820;DHT22;4949;48.482;9.206;2023-02-23T18:45:20;12.40;75.20
9820;DHT22;4949;48.482;9.206;2023-02-23T18:50:21;12.30;75.90
9820;DHT22;4949;48.482;9.206;2023-02-23T18:55:25;12.20;76.40
9820;DHT22;4949;48.482;9.206;2023-02-23T19:00:26;12.10;77.10
9820;DHT22;4949;48.482;9.206;2023-02-23T19:05:29;12.10;77.30
9820;DHT22;4949;48.482;9.206;2023-02-23T19:10:36;12.00;77.20
9820;DHT22;4949;48.482;9.206;2023-02-23T19:15:37;11.90;77.20
9820;DHT22;4949;48.482;9.206;2023-02-23T19:20:37;11.80;77.50
9820;DHT22;4949;48.482;9.206;2023-02-23T19:25:46;11.60;77.50
9820;DHT22;4949;48.482;9.206;2023-02-23T19:30:48;11.50;77.80
9820;DHT22;4949;48.482;9.206;2023-02-23T19:36:02;11.40;78.10
9820;DHT22;4949;48.482;9.206;2023-02-23T19:41:06;11.40;78.20
9820;DHT22;4949;48.482;9.206;2023-02-23T19:46:10;11.40;78.30
9820;DHT22;4949;48.482;9.206;2023-02-23T19:51:15;11.30;78.40
9820;DHT22;4949;48.482;9.206;2023-02-23T19:56:19;11.30;78.10
9820;DHT22;4949;48.482;9.206;2023-02-23T20:01:21;11.30;78.40
9820;DHT22;4949;48.482;9.206;2023-02-23T20:06:25;11.20;78.60
9820;DHT22;4949;48.482;9.206;2023-02-23T20:11:30;11.20;78.60
9820;DHT22;4949;48.482;9.206;2023-02-23T20:16:35;11.10;79.10
9820;DHT22;4949;48.482;9.206;2023-02-23T20:21:36;11.00;78.80
9820;DHT22;4949;48.482;9.206;2023-02-23T20:26:40;10.90;78.70
9820;DHT22;4949;48.482;9.206;2023-02-23T20:31:46;10.80;79.10
9820;DHT22;4949;48.482;9.206;2023-02-23T20:36:56;10.80;78.50
9820;DHT22;4949;48.482;9.206;2023-02-23T20:41:57;10.60;78.80
9820;DHT22;4949;48.482;9.206;2023-02-23T20:47:00;10.60;79.40
9820;DHT22;4949;48.482;9.206;2023-02-23T20:52:01;10.50;79.60
9820;DHT22;4949;48.482;9.206;2023-02-23T20:57:02;10.30;79.40
9820;DHT22;4949;48.482;9.206;2023-02-23T21:02:09;10.10;79.70
9820;DHT22;4949;48.482;9.206;2023-02-23T21:07:13;9.90;81.00
9820;DHT22;4949;48.482;9.206;2023-02-23T21:12:14;9.90;81.20
9820;DHT22;4949;48.482;9.206;2023-02-23T21:17:17;9.90;80.80
9820;DHT22;4949;48.482;9.206;2023-02-23T21:22:18;9.80;80.80
9820;DHT22;4949;48.482;9.206;2023-02-23T21:27:18;9.70;80.40
9820;DHT22;4949;48.482;9.206;2023-02-23T21:32:20;9.60;80.50
9820;DHT22;4949;48.482;9.206;2023-02-23T21:37:24;9.50;80.80
9820;DHT22;4949;48.482;9.206;2023-02-23T21:42:25;9.40;81.30
9820;DHT22;4949;48.482;9.206;2023-02-23T21:47:32;9.40;80.70
9820;DHT22;4949;48.482;9.206;2023-02-23T21:52:36;9.50;80.30
9820;DHT22;4949;48.482;9.206;2023-02-23T21:57:39;9.30;80.60
9820;DHT22;4949;48.482;9.206;2023-02-23T22:02:40;9.20;81.10
9820;DHT22;4949;48.482;9.206;2023-02-23T22:07:45;9.20;80.40
9820;DHT22;4949;48.482;9.206;2023-02-23T22:12:49;9.10;80.00
9820;DHT22;4949;48.482;9.206;2023-02-23T22:17:55;9.10;80.50
9820;DHT22;4949;48.482;9.206;2023-02-23T22:22:58;9.00;80.80
9820;DHT22;4949;48.482;9.206;2023-02-23T22:27:59;8.90;81.20
9820;DHT22;4949;48.482;9.206;2023-02-23T22:33:01;8.80;81.70
9820;DHT22;4949;48.482;9.206;2023-02-23T22:38:01;8.80;81.90
9820;DHT22;4949;48.482;9.206;2023-02-23T22:43:04;8.80;81.80
9820;DHT22;4949;48.482;9.206;2023-02-23T22:48:06;8.80;81.70
9820;DHT22;4949;48.482;9.206;2023-02-23T22:53:11;8.80;81.90
9820;DHT22;4949;48.482;9.206;2023-02-23T22:58:14;8.90;81.70
9820;DHT22;4949;48.482;9.206;2023-02-23T23:03:16;8.70;82.00
9820;DHT22;4949;48.482;9.206;2023-02-23T23:08:19;8.60;82.10
9820;DHT22;4949;48.482;9.206;2023-02-23T23:13:19;8.60;82.80
9820;DHT22;4949;48.482;9.206;2023-02-23T23:18:23;8.50;82.70
9820;DHT22;4949;48.482;9.206;2023-02-23T23:23:27;8.60;82.50
9820;DHT22;4949;48.482;9.206;2023-02-23T23:28:28;8.50;82.20
9820;DHT22;4949;48.482;9.206;2023-02-23T23:33:29;8.50;82.60
9820;DHT22;4949;48.482;9.206;2023-02-23T23:38:30;8.60;82.60
9820;DHT22;4949;48.482;9.206;2023-02-23T23:43:32;8.50;82.60
9820;DHT22;4949;48.482;9.206;2023-02-23T23:48:36;8.50;83.20
9820;DHT22;4949;48.482;9.206;2023-02-23T23:53:40;8.50;83.20
9820;DHT22;4949;48.482;9.206;2023-02-23T23:58:43;8.50;83.60
